Home > Products > Valid Products > TAF

000
FTUS45 KABQ 250527
TAFFMN
TAF
KFMN 250527Z 2506/2606 VRB05KT P6SM SCT060 BKN120
     FM251200 27008KT P6SM VCSH BKN060
     FM251900 27011G20KT P6SM -SHRA BKN070
     FM252300 29012KT P6SM VCSH BKN080
     FM260300 08006KT P6SM SCT070 BKN120=



000
FTUS45 KABQ 250527
TAFABQ
TAF
KABQ 250527Z 2506/2606 36006KT P6SM SCT040 BKN070
     FM250900 VRB05KT P6SM FEW040 BKN090
     FM252100 28011G18KT P6SM VCSH BKN070
     FM260300 36005KT P6SM FEW060 BKN100=



000
FTUS45 KABQ 250527
TAFSAF
TAF
KSAF 250527Z 2506/2606 32007KT P6SM BKN080
     FM251000 35007KT P6SM SCT050
     FM251800 27012G18KT P6SM VCSH BKN070
     FM260300 31010KT P6SM BKN070=



000
FTUS45 KABQ 250527
TAFROW
TAF
KROW 250527Z 2506/2606 23009KT P6SM BKN200
     FM250900 34006KT P6SM SCT200
     FM252100 25011G18KT P6SM FEW150
     FM260200 28008KT P6SM BKN120=



000
FTUS45 KABQ 250527
TAFGUP
TAF
KGUP 250527Z 2506/2606 23005KT P6SM VCSH SCT060 BKN080
     FM251100 22005KT P6SM SCT010 BKN030
     FM251600 23010KT P6SM VCSH SCT025 BKN050
     FM251900 25013G18KT P6SM -SHRA BKN060
     FM260000 26011KT P6SM VCSH SCT060 BKN080
     FM260300 VRB04KT P6SM BKN100=



000
FTUS45 KABQ 250527
TAFLVS
TAF
KLVS 250527Z 2506/2606 24009KT P6SM SCT090 BKN150
     FM251700 23011G19KT P6SM SCT070
     FM252200 26015G25KT P6SM VCSH BKN070
     FM260100 28012KT P6SM BKN080=



000
FTUS45 KABQ 250527
TAFTCC
TAF
KTCC 250527Z 2506/2606 25007KT P6SM BKN150
     FM251800 24011G18KT P6SM SCT120
     FM252200 25014G22KT P6SM BKN120
     FM260200 29010KT P6SM BKN150=



000
FTUS45 KABQ 250326 AAB
TAFABQ
TAF AMD
KABQ 250326Z 2503/2524 12012G18KT P6SM VCSH BKN080
     FM250500 12008KT P6SM SCT090
     FM252200 28011G18KT P6SM -SHRA BKN070=



000
FTUS45 KABQ 250120 AAA
TAFABQ
TAF AMD
KABQ 250120Z 2501/2524 34011KT P6SM VCSH SCT070 BKN150
      TEMPO 2501/2503 VRB25G37KT -TSRA BKN050CB
     FM250300 31006KT P6SM VCSH BKN080
     FM250500 VRB05KT P6SM SCT090
     FM252200 28011G18KT P6SM -SHRA BKN070=



000
FTUS45 KABQ 242339
TAFFMN
TAF
KFMN 242339Z 2500/2524 28012G18KT P6SM BKN070
     FM250200 VRB05KT P6SM SCT080 BKN150
     FM251200 08005KT P6SM VCSH BKN060
     FM251900 27011G20KT P6SM -SHRA BKN070=



000
FTUS45 KABQ 242339
TAFABQ
TAF
KABQ 242339Z 2500/2524 31011G20KT P6SM VCSH SCT070 BKN150
      TEMPO 2500/2501 VRB20G30KT -SHRA BKN060
     FM250200 31006KT P6SM VCSH BKN080
     FM250500 VRB05KT P6SM SCT090
     FM252200 28011G18KT P6SM -SHRA BKN070=



000
FTUS45 KABQ 242339
TAFLVS
TAF
KLVS 242339Z 2500/2524 27015G25KT P6SM VCSH SCT080 BKN150
     FM250130 26009KT P6SM SCT090
     FM251700 23015G25KT P6SM SCT070
     FM252200 23015G25KT P6SM VCSH BKN070=



000
FTUS45 KABQ 242339
TAFTCC
TAF
KTCC 242339Z 2500/2524 24012G22KT P6SM SCT080
     FM250200 25010KT P6SM FEW100 SCT200
     FM251700 24015G22KT P6SM SCT100=



000
FTUS45 KABQ 242339
TAFFMN
TAF
KFMN 242339Z 2500/2524 28012G18KT P6SM BKN070
     FM250200 VRB05KT P6SM SCT080 BKN150
     FM251200 08005KT P6SM VCSH BKN060
     FM251900 27011G20KT P6SM -SHRA BKN070=



000
FTUS45 KABQ 242339
TAFGUP
TAF
KGUP 242339Z 2500/2524 27011KT P6SM VCSH BKN070
     FM250500 VRB05KT P6SM SCT080 BKN150
     FM251200 23010KT P6SM VCSH BKN050
     FM251900 25013G23KT P6SM -SHRA BKN060=



000
FTUS45 KABQ 242339
TAFROW
TAF
KROW 242339Z 2500/2524 23009KT P6SM SCT100 BKN200
     FM250900 34006KT P6SM SCT200
     FM252100 25011G21KT P6SM FEW100 SCT200=



000
FTUS45 KABQ 242339
TAFSAF
TAF
KSAF 242339Z 2500/2524 26011KT P6SM VCSH BKN070
     FM250200 32007KT P6SM SCT080
     FM251000 35007KT P6SM SCT035
     FM251600 35007KT P6SM FEW050
     FM252000 25012G21KT P6SM -SHRA BKN060=



000
FTUS45 KABQ 242339
TAFTCC
TAF
KTCC 242339Z 2500/2524 24012G22KT P6SM SCT080
     FM250200 25010KT P6SM FEW100 SCT200
     FM251700 24015G22KT P6SM SCT100=



000
FTUS45 KABQ 242339
TAFSAF
TAF
KSAF 242339Z 2500/2524 26011KT P6SM VCSH BKN070
     FM250200 32007KT P6SM SCT080
     FM251000 35007KT P6SM SCT035
     FM251600 35007KT P6SM FEW050
     FM252000 25012G21KT P6SM -SHRA BKN060=



000
FTUS45 KABQ 242339
TAFLVS
TAF
KLVS 242339Z 2500/2524 27015G25KT P6SM VCSH SCT080 BKN150
     FM250130 26009KT P6SM SCT090
     FM251700 23015G25KT P6SM SCT070
     FM252200 23015G25KT P6SM VCSH BKN070=



000
FTUS45 KABQ 242339
TAFABQ
TAF
KABQ 242339Z 2500/2524 31011G20KT P6SM VCSH SCT070 BKN150
      TEMPO 2500/2501 VRB20G30KT -SHRA BKN060
     FM250200 31006KT P6SM VCSH BKN080
     FM250500 VRB05KT P6SM SCT090
     FM252200 28011G18KT P6SM -SHRA BKN070=



000
FTUS45 KABQ 242339
TAFGUP
TAF
KGUP 242339Z 2500/2524 27011KT P6SM VCSH BKN070
     FM250500 VRB05KT P6SM SCT080 BKN150
     FM251200 23010KT P6SM VCSH BKN050
     FM251900 25013G23KT P6SM -SHRA BKN060=



000
FTUS45 KABQ 242339
TAFROW
TAF
KROW 242339Z 2500/2524 23009KT P6SM SCT100 BKN200
     FM250900 34006KT P6SM SCT200
     FM252100 25011G21KT P6SM FEW100 SCT200=



000
FTUS45 KABQ 242247 AAA
TAFLVS
TAF AMD
KLVS 242247Z 2423/2518 27020G30KT P6SM VCSH SCT080 BKN150
     FM250130 26009KT P6SM SCT090
     FM251600 23015G25KT P6SM SCT070=



000
FTUS45 KABQ 242245 AAA
TAFSAF
TAF AMD
KSAF 242245Z 2423/2518 25011KT P6SM VCSH BKN070
     FM250200 32007KT P6SM SCT080
     FM251000 35007KT P6SM SCT035
     FM251600 35007KT P6SM FEW050=



000
FTUS45 KABQ 242243 AAA
TAFGUP
TAF AMD
KGUP 242243Z 2423/2518 27011KT P6SM VCSH BKN070
     FM250500 VRB05KT P6SM BKN080=



000
FTUS45 KABQ 242231 AAB
TAFABQ
TAF AMD
KABQ 242231Z 2423/2518 33011G21KT P6SM VCSH BKN070
     FM250200 31006KT P6SM VCSH BKN080
     FM250500 VRB05KT P6SM SCT090=



000
FTUS45 KABQ 242231 AAB
TAFABQ
TAF AMD
KABQ 242231Z 2423/2518 33011G21KT P6SM VCSH BKN070
     FM250200 31006KT P6SM VCSH BKN080
     FM250500 VRB05KT P6SM SCT090=



000
FTUS45 KABQ 241728
TAFSAF
TAF
KSAF 241728Z 2418/2518 24015G25KT P6SM VCSH BKN050
     FM242000 25018G28KT P6SM VCTS BKN050CB
     FM250300 32009KT P6SM SKC
     FM250900 35004KT 5SM BR VCFG SCT005
     FM251400 35008KT P6SM FEW040=



000
FTUS45 KABQ 241728
TAFROW
TAF
KROW 241728Z 2418/2518 20007KT P6SM SKC
     FM242000 22012G20KT P6SM SKC
     FM250200 23009KT P6SM SCT150
     FM250800 34006KT P6SM SCT200=



000
FTUS45 KABQ 241728
TAFABQ
TAF
KABQ 241728Z 2418/2518 24007KT P6SM SCT060
     FM242000 27014G22KT P6SM BKN070
     FM242200 34015G25KT P6SM VCTS BKN060CB
     FM250300 33006KT P6SM SCT050
     FM251100 VRB04KT P6SM VCFG FEW006
     FM251400 26006KT P6SM FEW050=



000
FTUS45 KABQ 241728
TAFGUP
TAF
KGUP 241728Z 2418/2518 25009G19KT P6SM VCSH BKN040 BKN070
     FM242100 26012G20KT P6SM VCTS BKN050CB
     FM250200 23009KT P6SM SCT060
     FM250800 21005KT P6SM BKN050=



000
FTUS45 KABQ 241728
TAFTCC
TAF
KTCC 241728Z 2418/2518 24018G28KT P6SM SCT150
     FM250200 25012KT P6SM SCT080
     FM250500 25007KT P6SM SCT200=



000
FTUS45 KABQ 241728
TAFFMN
TAF
KFMN 241728Z 2418/2518 27008KT P6SM VCSH SCT030 BKN050
     FM242000 28012G18KT P6SM SCT040 SCT060
     FM250100 VRB04KT P6SM SCT040 SCT060
     FM250700 08005KT P6SM SCT060=



000
FTUS45 KABQ 241728
TAFLVS
TAF
KLVS 241728Z 2418/2518 26015G24KT P6SM SCT080
     FM242100 27019G29KT P6SM VCTS BKN070CB
     FM250100 26009KT P6SM SCT100 SCT150
     FM251600 23018G26KT P6SM SCT060=



000
FTUS45 KABQ 241728
TAFROW
TAF
KROW 241728Z 2418/2518 20007KT P6SM SKC
     FM242000 22012G20KT P6SM SKC
     FM250200 23009KT P6SM SCT150
     FM250800 34006KT P6SM SCT200=



000
FTUS45 KABQ 241728
TAFTCC
TAF
KTCC 241728Z 2418/2518 24018G28KT P6SM SCT150
     FM250200 25012KT P6SM SCT080
     FM250500 25007KT P6SM SCT200=



000
FTUS45 KABQ 241728
TAFGUP
TAF
KGUP 241728Z 2418/2518 25009G19KT P6SM VCSH BKN040 BKN070
     FM242100 26012G20KT P6SM VCTS BKN050CB
     FM250200 23009KT P6SM SCT060
     FM250800 21005KT P6SM BKN050=



000
FTUS45 KABQ 241728
TAFABQ
TAF
KABQ 241728Z 2418/2518 24007KT P6SM SCT060
     FM242000 27014G22KT P6SM BKN070
     FM242200 34015G25KT P6SM VCTS BKN060CB
     FM250300 33006KT P6SM SCT050
     FM251100 VRB04KT P6SM VCFG FEW006
     FM251400 26006KT P6SM FEW050=



000
FTUS45 KABQ 241728
TAFSAF
TAF
KSAF 241728Z 2418/2518 24015G25KT P6SM VCSH BKN050
     FM242000 25018G28KT P6SM VCTS BKN050CB
     FM250300 32009KT P6SM SKC
     FM250900 35004KT 5SM BR VCFG SCT005
     FM251400 35008KT P6SM FEW040=



000
FTUS45 KABQ 241728
TAFLVS
TAF
KLVS 241728Z 2418/2518 26015G24KT P6SM SCT080
     FM242100 27019G29KT P6SM VCTS BKN070CB
     FM250100 26009KT P6SM SCT100 SCT150
     FM251600 23018G26KT P6SM SCT060=



000
FTUS45 KABQ 241728
TAFFMN
TAF
KFMN 241728Z 2418/2518 27008KT P6SM VCSH SCT030 BKN050
     FM242000 28012G18KT P6SM SCT040 SCT060
     FM250100 VRB04KT P6SM SCT040 SCT060
     FM250700 08005KT P6SM SCT060=



000
FTUS45 KABQ 241350 AAA
TAFFMN
TAF AMD
KFMN 241350Z 2414/2512 29006KT P6SM VCSH BKN012 OVC025
     FM241600 27011KT P6SM VCSH SCT035 BKN060
     FM241900 28012G18KT P6SM SCT035 BKN050
     FM250100 VRB06KT P6SM SCT050 SCT080=



000
FTUS45 KABQ 241139
TAFTCC
TAF
KTCC 241139Z 2412/2512 VRB06KT 5SM BR OVC012
      TEMPO 2412/2415 3/4SM BR OVC003
     FM241500 25010KT 6SM BR BKN025
     FM241800 24018G28KT P6SM SCT080
     FM250200 25012KT P6SM SCT100=



000
FTUS45 KABQ 241139
TAFTCC
TAF
KTCC 241139Z 2412/2512 VRB06KT 5SM BR OVC012
      TEMPO 2412/2415 3/4SM BR OVC003
     FM241500 25010KT 6SM BR BKN025
     FM241800 24018G28KT P6SM SCT080
     FM250200 25012KT P6SM SCT100=



000
FTUS45 KABQ 241139
TAFSAF
TAF
KSAF 241139Z 2412/2512 34007KT P6SM BKN080
     FM241600 27010KT P6SM VCSH SCT070 BKN100
     FM242000 28013G20KT P6SM VCTS SCT040 BKN080CB
     FM250300 31007KT P6SM BKN120=



000
FTUS45 KABQ 241139
TAFFMN
TAF
KFMN 241139Z 2412/2512 29006KT P6SM VCSH BKN025 OVC035
     FM241600 27011KT P6SM VCSH SCT035 BKN060
     FM241900 28012G18KT P6SM SCT035 BKN050
     FM250100 VRB06KT P6SM SCT050 SCT080=



000
FTUS45 KABQ 241139
TAFABQ
TAF
KABQ 241139Z 2412/2512 VRB06KT P6SM SCT080 SCT200
     FM241600 24010KT P6SM SCT080
     FM242000 27012G22KT P6SM VCSH SCT060 BKN090
     FM250400 33006KT P6SM BKN100=



000
FTUS45 KABQ 241139
TAFROW
TAF
KROW 241139Z 2412/2512 24008KT P6SM SCT140
     FM241600 23011KT P6SM SKC
     FM242000 22012G20KT P6SM FEW090
     FM250200 24007KT P6SM SCT100=



000
FTUS45 KABQ 241139
TAFGUP
TAF
KGUP 241139Z 2412/2512 22006KT P6SM VCSH SCT035 BKN050
     FM241700 25009G19KT P6SM VCSH BKN040 BKN070
     FM242100 26012G20KT P6SM VCTS BKN050CB
     FM250200 23010KT P6SM VCSH BKN080=



000
FTUS45 KABQ 241139
TAFLVS
TAF
KLVS 241139Z 2412/2512 06006KT P6SM SCT110
     FM241700 26015G24KT P6SM SCT100
     FM242000 27019G29KT P6SM VCTS BKN090CB
     FM250200 26011G20KT P6SM SCT250=



000
FTUS45 KABQ 241139
TAFROW
TAF
KROW 241139Z 2412/2512 24008KT P6SM SCT140
     FM241600 23011KT P6SM SKC
     FM242000 22012G20KT P6SM FEW090
     FM250200 24007KT P6SM SCT100=



000
FTUS45 KABQ 241139
TAFABQ
TAF
KABQ 241139Z 2412/2512 VRB06KT P6SM SCT080 SCT200
     FM241600 24010KT P6SM SCT080
     FM242000 27012G22KT P6SM VCSH SCT060 BKN090
     FM250400 33006KT P6SM BKN100=



000
FTUS45 KABQ 241139
TAFLVS
TAF
KLVS 241139Z 2412/2512 06006KT P6SM SCT110
     FM241700 26015G24KT P6SM SCT100
     FM242000 27019G29KT P6SM VCTS BKN090CB
     FM250200 26011G20KT P6SM SCT250=



000
FTUS45 KABQ 241139
TAFFMN
TAF
KFMN 241139Z 2412/2512 29006KT P6SM VCSH BKN025 OVC035
     FM241600 27011KT P6SM VCSH SCT035 BKN060
     FM241900 28012G18KT P6SM SCT035 BKN050
     FM250100 VRB06KT P6SM SCT050 SCT080=



000
FTUS45 KABQ 241139
TAFSAF
TAF
KSAF 241139Z 2412/2512 34007KT P6SM BKN080
     FM241600 27010KT P6SM VCSH SCT070 BKN100
     FM242000 28013G20KT P6SM VCTS SCT040 BKN080CB
     FM250300 31007KT P6SM BKN120=



000
FTUS45 KABQ 241139
TAFGUP
TAF
KGUP 241139Z 2412/2512 22006KT P6SM VCSH SCT035 BKN050
     FM241700 25009G19KT P6SM VCSH BKN040 BKN070
     FM242100 26012G20KT P6SM VCTS BKN050CB
     FM250200 23010KT P6SM VCSH BKN080=



000
FTUS45 KABQ 240521
TAFABQ
TAF
KABQ 240521Z 2406/2506 33007KT P6SM SCT100
     FM240900 VRB05KT P6SM BKN100
     FM241600 24010KT P6SM SCT110
     FM242000 27012G22KT P6SM VCSH SCT060 BKN090
     FM250400 33006KT P6SM BKN100=



000
FTUS45 KABQ 240521
TAFTCC
TAF
KTCC 240521Z 2406/2506 23009KT P6SM SCT100
     FM240900 25008KT P6SM FEW120
     FM241800 24018G28KT P6SM FEW090
     FM250200 25011KT P6SM SCT100=



000
FTUS45 KABQ 240521
TAFFMN
TAF
KFMN 240521Z 2406/2506 30006KT P6SM -SHRA SCT025 BKN050
     FM240800 VRB06KT P6SM -SHRA BKN025
     FM241200 29006KT P6SM VCSH SCT015 BKN025
     FM241600 27011KT P6SM SCT035 BKN060
     FM241900 28012G19KT P6SM VCSH BKN035=



000
FTUS45 KABQ 240521
TAFGUP
TAF
KGUP 240521Z 2406/2506 25005KT P6SM -RA SCT025 BKN035
     FM240800 22006KT P6SM VCSH SCT025 BKN035
     FM241700 25009G19KT P6SM SCT050 BKN100
     FM242100 26011G21KT P6SM VCTS BKN050CB
     FM250300 28010KT P6SM VCSH OVC100=



000
FTUS45 KABQ 240521
TAFROW
TAF
KROW 240521Z 2406/2506 14011KT P6SM SCT015 SCT120
     FM240800 18006KT P6SM BKN015
     FM241100 24008KT P6SM FEW140
     FM241600 23011KT P6SM SKC
     FM242000 22014G24KT P6SM FEW090=



000
FTUS45 KABQ 240521
TAFLVS
TAF
KLVS 240521Z 2406/2506 34006KT P6SM SCT110
     FM241700 26015G24KT P6SM SCT100
     FM242000 27019G29KT P6SM VCSH BKN090
     FM250200 26011G20KT P6SM SCT250=



000
FTUS45 KABQ 240521
TAFSAF
TAF
KSAF 240521Z 2406/2506 34007KT P6SM BKN100
     FM241800 27012G22KT P6SM SCT080 BKN100
     FM242100 28013G23KT P6SM VCTS SCT040 BKN080CB
     FM250300 31007KT P6SM BKN120=



000
FTUS45 KABQ 232339
TAFABQ
TAF
KABQ 232339Z 2400/2424 24011KT P6SM BKN100
     FM240200 31006KT P6SM SCT100
     FM241000 VRB06KT P6SM SCT100
     FM241800 24010KT P6SM BKN100
     FM242000 27012G22KT P6SM VCSH SCT060 BKN100=



000
FTUS45 KABQ 232339
TAFFMN
TAF
KFMN 232339Z 2400/2424 29011KT P6SM VCSH SCT035 BKN070
      TEMPO 2404/2408 VRB15G25KT -SHRA SCT025 BKN035
     FM240800 VRB06KT P6SM -SHRA SCT025 BKN035
     FM241100 29006KT P6SM VCSH SCT015 BKN025
     FM241600 27011KT P6SM SCT035 BKN100=



000
FTUS45 KABQ 232339
TAFROW
TAF
KROW 232339Z 2400/2424 20018G28KT P6SM FEW090
     FM240200 22009KT P6SM SCT110
     FM241000 18006KT P6SM SCT015
     FM241600 21007KT P6SM SKC
     FM242000 22014G24KT P6SM SKC=



000
FTUS45 KABQ 232339
TAFTCC
TAF
KTCC 232339Z 2400/2424 22015KT P6SM SCT050
      TEMPO 2400/2402 22015G25KT
     FM240200 23009KT P6SM SCT090
     FM241800 24018G28KT P6SM FEW120=



000
FTUS45 KABQ 232339
TAFSAF
TAF
KSAF 232339Z 2400/2424 24012G22KT P6SM SCT090
     FM240200 35008KT P6SM BKN100
     FM241800 27012G22KT P6SM SCT100
     FM242100 28013G23KT P6SM VCTS SCT040 BKN080CB=



000
FTUS45 KABQ 232339
TAFLVS
TAF
KLVS 232339Z 2400/2424 23017G27KT P6SM SCT070
     FM240200 25010KT P6SM SCT100
     FM241800 24019G29KT P6SM VCSH SCT100=



000
FTUS45 KABQ 232339
TAFGUP
TAF
KGUP 232339Z 2400/2424 25013G23KT P6SM VCSH SCT035 BKN060
      TEMPO 2402/2406 VRB15G25KT -SHRA SCT025 BKN035
     FM240600 22006KT P6SM -RA SCT025 BKN035
     FM240800 22006KT P6SM VCSH SCT025 BKN035
     FM241700 25009G19KT P6SM SCT050 BKN100
     FM242100 26011G21KT P6SM VCTS BKN050CB=



000
FTUS45 KABQ 232225 AAA
TAFLVS
TAF AMD
KLVS 232225Z 2322/2418 23015G25KT P6SM SCT070
     FM240200 25007KT P6SM SCT100=



000
FTUS45 KABQ 231745
TAFROW
TAF
KROW 231745Z 2318/2418 23015G25KT P6SM SKC
     FM232030 20021G31KT P6SM FEW090
     FM240200 22011KT P6SM SCT110
     FM241000 19006KT P6SM SCT015
     FM241500 21007KT P6SM SKC=



000
FTUS45 KABQ 231745
TAFTCC
TAF
KTCC 231745Z 2318/2418 23015G25KT P6SM SCT050
     FM232000 21020G30KT P6SM BKN060
     FM240200 18008KT P6SM SCT090
     FM240400 25010KT P6SM SKC=



000
FTUS45 KABQ 231745
TAFSAF
TAF
KSAF 231745Z 2318/2418 24012G22KT P6SM SCT070
      TEMPO 2321/2401 BKN080
     FM240200 33007KT P6SM BKN110=



000
FTUS45 KABQ 231745
TAFABQ
TAF
KABQ 231745Z 2318/2418 22008KT P6SM SCT080
      TEMPO 2321/2401 23012G22KT BKN080
     FM240200 31006KT P6SM SCT110=



000
FTUS45 KABQ 231745
TAFLVS
TAF
KLVS 231745Z 2318/2418 20015G25KT P6SM SCT060
     FM232000 23021G31KT P6SM SCT070
     FM240200 25007KT P6SM SCT100=



000
FTUS45 KABQ 231745
TAFGUP
TAF
KGUP 231745Z 2318/2418 24015G25KT P6SM VCSH BKN060
     FM240130 22011KT P6SM -RA BKN060
     FM240300 21005KT P6SM VCSH BKN050=



000
FTUS45 KABQ 231745
TAFFMN
TAF
KFMN 231745Z 2318/2418 23011KT P6SM VCSH BKN070
      TEMPO 2320/2324 VRB15G25KT -SHRA BKN060
     FM240200 27008KT P6SM -RA BKN040=



000
FTUS45 KABQ 231745
TAFSAF
TAF
KSAF 231745Z 2318/2418 24012G22KT P6SM SCT070
      TEMPO 2321/2401 BKN080
     FM240200 33007KT P6SM BKN110=



000
FTUS45 KABQ 231745
TAFFMN
TAF
KFMN 231745Z 2318/2418 23011KT P6SM VCSH BKN070
      TEMPO 2320/2324 VRB15G25KT -SHRA BKN060
     FM240200 27008KT P6SM -RA BKN040=



000
FTUS45 KABQ 231745
TAFGUP
TAF
KGUP 231745Z 2318/2418 24015G25KT P6SM VCSH BKN060
     FM240130 22011KT P6SM -RA BKN060
     FM240300 21005KT P6SM VCSH BKN050=



000
FTUS45 KABQ 231745
TAFABQ
TAF
KABQ 231745Z 2318/2418 22008KT P6SM SCT080
      TEMPO 2321/2401 23012G22KT BKN080
     FM240200 31006KT P6SM SCT110=



000
FTUS45 KABQ 231745
TAFLVS
TAF
KLVS 231745Z 2318/2418 20015G25KT P6SM SCT060
     FM232000 23021G31KT P6SM SCT070
     FM240200 25007KT P6SM SCT100=



000
FTUS45 KABQ 231745
TAFROW
TAF
KROW 231745Z 2318/2418 23015G25KT P6SM SKC
     FM232030 20021G31KT P6SM FEW090
     FM240200 22011KT P6SM SCT110
     FM241000 19006KT P6SM SCT015
     FM241500 21007KT P6SM SKC=



000
FTUS45 KABQ 231745
TAFTCC
TAF
KTCC 231745Z 2318/2418 23015G25KT P6SM SCT050
     FM232000 21020G30KT P6SM BKN060
     FM240200 18008KT P6SM SCT090
     FM240400 25010KT P6SM SKC=



000
FTUS45 KABQ 231352 AAA
TAFROW
TAF AMD
KROW 231352Z 2314/2412 20010KT 5SM BR BKN012
      TEMPO 2314/2315 3SM BR OVC003
     FM231600 21015KT P6SM SCT025
     FM231900 20015G25KT P6SM SCT090
     FM240100 18013KT P6SM BKN110=



000
FTUS45 KABQ 231352 AAA
TAFROW
TAF AMD
KROW 231352Z 2314/2412 20010KT 5SM BR BKN012
      TEMPO 2314/2315 3SM BR OVC003
     FM231600 21015KT P6SM SCT025
     FM231900 20015G25KT P6SM SCT090
     FM240100 18013KT P6SM BKN110=



000
FTUS45 KABQ 231130
TAFTCC
TAF
KTCC 231130Z 2312/2412 13012KT P6SM SCT015 OVC025
      TEMPO 2312/2315 OVC015
     FM231500 20015KT P6SM OVC025
     FM231700 23015G22KT P6SM SCT070
     FM232000 21020G30KT P6SM BKN090
     FM240200 18008KT P6SM BKN100=



000
FTUS45 KABQ 231130
TAFFMN
TAF
KFMN 231130Z 2312/2412 VRB06KT P6SM SKC
     FM231800 22010KT P6SM SCT120
     FM232100 25013G22KT P6SM VCSH BKN080
     FM240200 27008KT P6SM VCSH BKN080=



000
FTUS45 KABQ 231130
TAFABQ
TAF
KABQ 231130Z 2312/2412 VRB06KT P6SM SCT200
     FM231800 24008KT P6SM SCT080
     FM232100 25012G20KT P6SM BKN090
     FM240200 31006KT P6SM BKN110=



000
FTUS45 KABQ 231130
TAFSAF
TAF
KSAF 231130Z 2312/2412 03006KT P6SM SCT200
     FM231800 24012G20KT P6SM SCT080
      TEMPO 2321/2401 BKN090
     FM240100 31007KT P6SM BKN110=



000
FTUS45 KABQ 231130
TAFGUP
TAF
KGUP 231130Z 2312/2412 VRB06KT P6SM SCT050 SCT200
     FM231700 24013KT P6SM SCT100
     FM232000 25015G25KT P6SM VCSH BKN080
     FM240200 23007KT P6SM VCSH BKN100=



000
FTUS45 KABQ 231130
TAFFMN
TAF
KFMN 231130Z 2312/2412 VRB06KT P6SM SKC
     FM231800 22010KT P6SM SCT120
     FM232100 25013G22KT P6SM VCSH BKN080
     FM240200 27008KT P6SM VCSH BKN080=



000
FTUS45 KABQ 231130
TAFROW
TAF
KROW 231130Z 2312/2412 18012KT P6SM VCSH OVC007
     FM231300 20010KT P6SM BKN012
     FM231500 21015KT P6SM SCT025
     FM231900 20015G25KT P6SM SCT090
     FM240100 18013KT P6SM BKN110=



000
FTUS45 KABQ 231130
TAFSAF
TAF
KSAF 231130Z 2312/2412 03006KT P6SM SCT200
     FM231800 24012G20KT P6SM SCT080
      TEMPO 2321/2401 BKN090
     FM240100 31007KT P6SM BKN110=



000
FTUS45 KABQ 231130
TAFGUP
TAF
KGUP 231130Z 2312/2412 VRB06KT P6SM SCT050 SCT200
     FM231700 24013KT P6SM SCT100
     FM232000 25015G25KT P6SM VCSH BKN080
     FM240200 23007KT P6SM VCSH BKN100=



000
FTUS45 KABQ 231130
TAFLVS
TAF
KLVS 231130Z 2312/2412 18008KT 4SM BR OVC012
      TEMPO 2312/2315 4SM BR OVC005
     FM231500 22015KT P6SM SCT025
     FM231800 23022G32KT P6SM SCT080
     FM240200 25007KT P6SM BKN100=



000
FTUS45 KABQ 231130
TAFABQ
TAF
KABQ 231130Z 2312/2412 VRB06KT P6SM SCT200
     FM231800 24008KT P6SM SCT080
     FM232100 25012G20KT P6SM BKN090
     FM240200 31006KT P6SM BKN110=



000
FTUS45 KABQ 231130
TAFTCC
TAF
KTCC 231130Z 2312/2412 13012KT P6SM SCT015 OVC025
      TEMPO 2312/2315 OVC015
     FM231500 20015KT P6SM OVC025
     FM231700 23015G22KT P6SM SCT070
     FM232000 21020G30KT P6SM BKN090
     FM240200 18008KT P6SM BKN100=



000
FTUS45 KABQ 231130
TAFROW
TAF
KROW 231130Z 2312/2412 18012KT P6SM VCSH OVC007
     FM231300 20010KT P6SM BKN012
     FM231500 21015KT P6SM SCT025
     FM231900 20015G25KT P6SM SCT090
     FM240100 18013KT P6SM BKN110=



000
FTUS45 KABQ 231130
TAFLVS
TAF
KLVS 231130Z 2312/2412 18008KT 4SM BR OVC012
      TEMPO 2312/2315 4SM BR OVC005
     FM231500 22015KT P6SM SCT025
     FM231800 23022G32KT P6SM SCT080
     FM240200 25007KT P6SM BKN100=



000
FTUS45 KABQ 230731 AAA
TAFLVS
TAF AMD
KLVS 230731Z 2308/2406 18008KT P6SM OVC025
      TEMPO 2308/2312 4SM BR OVC005
     FM231500 22015KT P6SM SCT025
     FM231800 23022G32KT P6SM FEW100=



000
FTUS45 KABQ 230731 AAA
TAFLVS
TAF AMD
KLVS 230731Z 2308/2406 18008KT P6SM OVC025
      TEMPO 2308/2312 4SM BR OVC005
     FM231500 22015KT P6SM SCT025
     FM231800 23022G32KT P6SM FEW100=



000
FTUS45 KABQ 230523
TAFGUP
TAF
KGUP 230523Z 2306/2406 24011KT P6SM BKN200
     FM230800 VRB05KT P6SM SCT200
     FM231600 24013KT P6SM SCT100
     FM232000 24015G25KT P6SM VCSH BKN100=



000
FTUS45 KABQ 230523
TAFFMN
TAF
KFMN 230523Z 2306/2406 27010KT P6SM BKN150
     FM231200 VRB04KT P6SM SKC
     FM231800 22010KT P6SM SCT120
     FM232100 25013G22KT P6SM VCSH BKN110=



000
FTUS45 KABQ 230523
TAFABQ
TAF
KABQ 230523Z 2306/2406 17010KT P6SM FEW200
     FM230900 VRB05KT P6SM SCT200
     FM231800 24008KT P6SM SCT100
     FM232100 25012G21KT P6SM BKN110=



000
FTUS45 KABQ 230523
TAFFMN
TAF
KFMN 230523Z 2306/2406 27010KT P6SM BKN150
     FM231200 VRB04KT P6SM SKC
     FM231800 22010KT P6SM SCT120
     FM232100 25013G22KT P6SM VCSH BKN110=



000
FTUS45 KABQ 230523
TAFTCC
TAF
KTCC 230523Z 2306/2406 16010KT P6SM VCSH OVC020
      TEMPO 2307/2310 VRB20G35KT 2SM TSRA OVC010CB
     FM231000 19015KT P6SM VCTS OVC009CB
     FM231200 18012KT P6SM OVC015
     FM231400 20015KT P6SM OVC025
     FM231700 23015G23KT P6SM SKC=



000
FTUS45 KABQ 230523
TAFROW
TAF
KROW 230523Z 2306/2406 14008KT P6SM VCTS OVC015CB
      TEMPO 2306/2308 4SM -TSRA OVC010CB
     FM230900 18010KT P6SM VCSH BKN010
     FM231300 20010KT P6SM BKN020
     FM231500 21015KT P6SM SCT025=



000
FTUS45 KABQ 230523
TAFLVS
TAF
KLVS 230523Z 2306/2406 18008KT P6SM OVC025
      TEMPO 2308/2312 4SM BR OVC015
     FM231500 22015KT P6SM SCT025
     FM231800 23022G32KT P6SM FEW100=



000
FTUS45 KABQ 230523
TAFSAF
TAF
KSAF 230523Z 2306/2406 14015KT P6SM SCT200
     FM231000 11008KT P6SM SCT200
     FM231800 24012G21KT P6SM SCT090=



000
FTUS45 KABQ 230434 AAB
TAFTCC
TAF AMD
KTCC 230434Z 2305/2324 16015KT P6SM VCSH BKN015
      TEMPO 2307/2310 VRB20G30KT 2SM TSRA OVC010CB
     FM231000 19015KT P6SM VCTS OVC009CB
     FM231200 18012KT P6SM OVC015
     FM231400 20015KT P6SM OVC025
     FM231700 23015G23KT P6SM SKC=



000
FTUS45 KABQ 230434 AAA
TAFROW
TAF AMD
KROW 230434Z 2305/2324 14010KT P6SM VCTS BKN015CB OVC025
      TEMPO 2306/2308 4SM -TSRA OVC010CB
     FM230900 18010KT P6SM VCSH BKN010
     FM231300 20010KT P6SM BKN020
     FM231500 21015KT P6SM SCT025=



000
FTUS45 KABQ 230434 AAB
TAFTCC
TAF AMD
KTCC 230434Z 2305/2324 16015KT P6SM VCSH BKN015
      TEMPO 2307/2310 VRB20G30KT 2SM TSRA OVC010CB
     FM231000 19015KT P6SM VCTS OVC009CB
     FM231200 18012KT P6SM OVC015
     FM231400 20015KT P6SM OVC025
     FM231700 23015G23KT P6SM SKC=



000
FTUS45 KABQ 230434 AAA
TAFROW
TAF AMD
KROW 230434Z 2305/2324 14010KT P6SM VCTS BKN015CB OVC025
      TEMPO 2306/2308 4SM -TSRA OVC010CB
     FM230900 18010KT P6SM VCSH BKN010
     FM231300 20010KT P6SM BKN020
     FM231500 21015KT P6SM SCT025=



000
FTUS45 KABQ 230404 AAC
TAFGUP
TAF AMD
KGUP 230404Z 2304/2324 24012G20KT P6SM BKN200
     FM230600 VRB05KT P6SM SCT200
     FM231600 24013KT P6SM SCT100=



000
FTUS45 KABQ 230404 AAA
TAFLVS
TAF AMD
KLVS 230404Z 2304/2324 18010KT P6SM SCT015 BKN100
      TEMPO 2304/2308 BKN015
     FM230800 16007KT P6SM BKN009
     FM231500 22015KT P6SM SCT025
     FM231800 23022G32KT P6SM FEW100=



000
FTUS45 KABQ 230217 AAB
TAFGUP
TAF AMD
KGUP 230217Z 2302/2324 24015G25KT P6SM SCT100 BKN200
     FM230300 24012KT P6SM SCT150
     FM230400 VRB05KT P6SM SKC
     FM231600 24013KT P6SM SCT100=



000
FTUS45 KABQ 230217 AAA
TAFSAF
TAF AMD
KSAF 230217Z 2302/2324 14012G19KT P6SM SCT120
     FM230800 11006KT P6SM FEW120
     FM231800 24012G21KT P6SM SCT090=



000
FTUS45 KABQ 230217 AAB
TAFGUP
TAF AMD
KGUP 230217Z 2302/2324 24015G25KT P6SM SCT100 BKN200
     FM230300 24012KT P6SM SCT150
     FM230400 VRB05KT P6SM SKC
     FM231600 24013KT P6SM SCT100=



000
FTUS45 KABQ 230217 AAA
TAFSAF
TAF AMD
KSAF 230217Z 2302/2324 14012G19KT P6SM SCT120
     FM230800 11006KT P6SM FEW120
     FM231800 24012G21KT P6SM SCT090=



000
FTUS45 KABQ 230136 AAB
TAFFMN
TAF AMD
KFMN 230136Z 2302/2324 13013KT P6SM VCTS SCT060CB BKN100
      TEMPO 2302/2303 VRB20G32KT -TSRA BKN060CB
     FM230300 25008KT P6SM SCT060 BKN120
     FM230600 27006KT P6SM SCT120
     FM231200 VRB04KT P6SM SKC=



000
FTUS45 KABQ 222344 RRA
TAFFMN
TAF
KFMN 222344Z 2300/2324 13013KT P6SM VCTS SCT050CB BKN100
      TEMPO 2300/2303 VRB20G32KT -SHRA BKN050
     FM230300 25008KT P6SM BKN120
     FM230600 27006KT P6SM SCT150
     FM231200 VRB04KT P6SM SKC=



000
FTUS45 KABQ 222344 RRA
TAFABQ
TAF
KABQ 222344Z 2300/2324 18020G28KT P6SM SCT090
     FM230200 16010KT P6SM FEW100
     FM230700 VRB05KT P6SM SKC
     FM231800 24008KT P6SM SCT100=



000
FTUS45 KABQ 222344 RRA
TAFGUP
TAF
KGUP 222344Z 2300/2324 24015G25KT P6SM SCT100 BKN200
     FM230200 24012KT P6SM SCT150
     FM230400 VRB05KT P6SM SKC
     FM231600 24013KT P6SM SCT100=



000
FTUS45 KABQ 222344 RRA
TAFTCC
TAF
KTCC 222344Z 2300/2324 19012KT P6SM FEW040
     FM230300 16015KT P6SM VCSH SCT050 BKN120
      TEMPO 2305/2308 VRB20G30KT 2SM TSRA OVC020CB
     FM230900 19015KT P6SM VCTS SCT035CB BKN100
     FM231100 18012KT 5SM -RA BR BKN015
     FM231300 20015KT P6SM OVC025
     FM231700 23015G23KT P6SM SKC=



000
FTUS45 KABQ 222344 RRA
TAFROW
TAF
KROW 222344Z 2300/2324 15014G22KT P6SM SKC
     FM230200 14015KT P6SM VCSH SCT050 BKN120
      TEMPO 2303/2306 2SM TSRA OVC020CB
     FM230600 16015KT P6SM VCTS SCT040CB BKN100
     FM230800 18010KT P6SM -RA BKN030
     FM231000 20010KT P6SM BKN025
     FM231500 21015KT P6SM SKC=



000
FTUS45 KABQ 222344 RRA
TAFLVS
TAF
KLVS 222344Z 2300/2324 20020G30KT P6SM SCT070 BKN090
     FM230200 18013KT P6SM SCT100
     FM230900 16007KT P6SM SCT025
     FM231500 22015KT P6SM SKC
     FM231800 23022G32KT P6SM FEW100=



000
FTUS45 KABQ 222344 RRA
TAFTCC
TAF
KTCC 222344Z 2300/2324 19012KT P6SM FEW040
     FM230300 16015KT P6SM VCSH SCT050 BKN120
      TEMPO 2305/2308 VRB20G30KT 2SM TSRA OVC020CB
     FM230900 19015KT P6SM VCTS SCT035CB BKN100
     FM231100 18012KT 5SM -RA BR BKN015
     FM231300 20015KT P6SM OVC025
     FM231700 23015G23KT P6SM SKC=



000
FTUS45 KABQ 222344 RRA
TAFSAF
TAF
KSAF 222344Z 2300/2324 19017G27KT P6SM SCT050
     FM230200 14011KT P6SM SCT120
     FM230900 11006KT P6SM FEW120
     FM231800 24012G21KT P6SM SCT090=



000
FTUS45 KABQ 222344 RRA
TAFABQ
TAF
KABQ 222344Z 2300/2324 18020G28KT P6SM SCT090
     FM230200 16010KT P6SM FEW100
     FM230700 VRB05KT P6SM SKC
     FM231800 24008KT P6SM SCT100=



000
FTUS45 KABQ 222344 RRA
TAFLVS
TAF
KLVS 222344Z 2300/2324 20020G30KT P6SM SCT070 BKN090
     FM230200 18013KT P6SM SCT100
     FM230900 16007KT P6SM SCT025
     FM231500 22015KT P6SM SKC
     FM231800 23022G32KT P6SM FEW100=



000
FTUS45 KABQ 222344 RRA
TAFGUP
TAF
KGUP 222344Z 2300/2324 24015G25KT P6SM SCT100 BKN200
     FM230200 24012KT P6SM SCT150
     FM230400 VRB05KT P6SM SKC
     FM231600 24013KT P6SM SCT100=



000
FTUS45 KABQ 222344 RRA
TAFFMN
TAF
KFMN 222344Z 2300/2324 13013KT P6SM VCTS SCT050CB BKN100
      TEMPO 2300/2303 VRB20G32KT -SHRA BKN050
     FM230300 25008KT P6SM BKN120
     FM230600 27006KT P6SM SCT150
     FM231200 VRB04KT P6SM SKC=



000
FTUS45 KABQ 222344 RRA
TAFROW
TAF
KROW 222344Z 2300/2324 15014G22KT P6SM SKC
     FM230200 14015KT P6SM VCSH SCT050 BKN120
      TEMPO 2303/2306 2SM TSRA OVC020CB
     FM230600 16015KT P6SM VCTS SCT040CB BKN100
     FM230800 18010KT P6SM -RA BKN030
     FM231000 20010KT P6SM BKN025
     FM231500 21015KT P6SM SKC=



000
FTUS45 KABQ 222344 RRA
TAFSAF
TAF
KSAF 222344Z 2300/2324 19017G27KT P6SM SCT050
     FM230200 14011KT P6SM SCT120
     FM230900 11006KT P6SM FEW120
     FM231800 24012G21KT P6SM SCT090=



000
FTUS45 KABQ 222123 AAA
TAFTCC
TAF AMD
KTCC 222123Z 2221/2318 19015KT P6SM SCT040
     FM230300 16015KT P6SM VCSH SCT050 BKN120
      TEMPO 2305/2307 VRB20G30KT 2SM TSRA OVC020CB
     FM230700 19015KT P6SM VCTS SCT035CB BKN100
     FM230900 18012KT 5SM -RA BR BKN015
     FM231300 20015KT P6SM OVC025
     FM231700 23015G23KT P6SM SKC=



000
FTUS45 KABQ 222123 AAA
TAFTCC
TAF AMD
KTCC 222123Z 2221/2318 19015KT P6SM SCT040
     FM230300 16015KT P6SM VCSH SCT050 BKN120
      TEMPO 2305/2307 VRB20G30KT 2SM TSRA OVC020CB
     FM230700 19015KT P6SM VCTS SCT035CB BKN100
     FM230900 18012KT 5SM -RA BR BKN015
     FM231300 20015KT P6SM OVC025
     FM231700 23015G23KT P6SM SKC=



000
FTUS45 KABQ 222121 AAA
TAFGUP
TAF AMD
KGUP 222121Z 2221/2318 20020G30KT P6SM SCT100 BKN200
     FM230200 24012KT P6SM SCT150
     FM230400 VRB05KT P6SM SKC=



000
FTUS45 KABQ 222121 AAA
TAFGUP
TAF AMD
KGUP 222121Z 2221/2318 20020G30KT P6SM SCT100 BKN200
     FM230200 24012KT P6SM SCT150
     FM230400 VRB05KT P6SM SKC=



000
FTUS45 KABQ 222120 AAA
TAFFMN
TAF AMD
KFMN 222120Z 2221/2318 17013G23KT P6SM VCTS SCT050CB BKN100
      TEMPO 2222/2301 VRB20G32KT -SHRA BKN050
     FM230130 25008KT P6SM BKN120
     FM230600 VRB05KT P6SM SCT150=



000
FTUS45 KABQ 221750
TAFSAF
TAF
KSAF 221750Z 2218/2318 17010KT P6SM SCT035
      TEMPO 2218/2220 BKN025
     FM222100 19017G27KT P6SM SCT050
     FM230200 14011KT P6SM SCT120=



000
FTUS45 KABQ 221750
TAFGUP
TAF
KGUP 221750Z 2218/2318 15011KT P6SM FEW070 BKN200
     FM221900 21012G22KT P6SM SCT080 BKN200
     FM222100 22022G32KT P6SM SCT080
     FM230200 24013KT P6SM SCT150
     FM230400 VRB05KT P6SM SKC=



000
FTUS45 KABQ 221750
TAFTCC
TAF
KTCC 221750Z 2218/2318 19015KT P6SM FEW040
      TEMPO 2218/2219 BKN025
     FM222100 18015G25KT P6SM SCT050
     FM230200 16015KT P6SM VCSH SCT060 BKN120
      TEMPO 2305/2307 VRB20G30KT 2SM TSRA OVC020CB
     FM230700 19015KT P6SM VCTS SCT035CB BKN100
     FM230900 18012KT 5SM -RA BR BKN015
     FM231300 20015KT P6SM OVC025
     FM231700 23015G23KT P6SM SKC=



000
FTUS45 KABQ 221750
TAFLVS
TAF
KLVS 221750Z 2218/2318 20015KT P6SM SCT040
     FM221930 20016G26KT P6SM BKN050
     FM222100 20025G35KT P6SM FEW070 SCT120
     FM230200 18013KT P6SM FEW120
     FM230900 16007KT P6SM SCT025
     FM231500 22015KT P6SM SKC=



000
FTUS45 KABQ 221750
TAFLVS
TAF
KLVS 221750Z 2218/2318 20015KT P6SM SCT040
     FM221930 20016G26KT P6SM BKN050
     FM222100 20025G35KT P6SM FEW070 SCT120
     FM230200 18013KT P6SM FEW120
     FM230900 16007KT P6SM SCT025
     FM231500 22015KT P6SM SKC=



000
FTUS45 KABQ 221750
TAFROW
TAF
KROW 221750Z 2218/2318 15010KT P6SM BKN015
     FM221930 16014G22KT P6SM SKC
     FM230200 14015KT P6SM VCSH SCT050 BKN120
      TEMPO 2303/2305 2SM TSRA OVC020CB
     FM230500 16015KT P6SM VCTS SCT040CB BKN100
     FM230700 18010KT P6SM -RA BKN030
     FM231000 20010KT P6SM BKN025
     FM231500 21015KT P6SM SKC=



000
FTUS45 KABQ 221750
TAFROW
TAF
KROW 221750Z 2218/2318 15010KT P6SM BKN015
     FM221930 16014G22KT P6SM SKC
     FM230200 14015KT P6SM VCSH SCT050 BKN120
      TEMPO 2303/2305 2SM TSRA OVC020CB
     FM230500 16015KT P6SM VCTS SCT040CB BKN100
     FM230700 18010KT P6SM -RA BKN030
     FM231000 20010KT P6SM BKN025
     FM231500 21015KT P6SM SKC=



000
FTUS45 KABQ 221750
TAFFMN
TAF
KFMN 221750Z 2218/2318 08008KT P6SM FEW080 SCT200
     FM221930 15010KT P6SM SCT090 BKN200
     FM222100 18013G23KT P6SM VCSH BKN090
     FM230300 25008KT P6SM BKN120
     FM230600 VRB05KT P6SM SCT150=



000
FTUS45 KABQ 221750
TAFABQ
TAF
KABQ 221750Z 2218/2318 22008KT P6SM SCT050 BKN200
     FM221930 18014G24KT P6SM SCT070 BKN200
     FM222200 19021G32KT P6SM SCT090
     FM230200 16010KT P6SM FEW100
     FM230700 VRB05KT P6SM SKC=



000
FTUS45 KABQ 221750
TAFABQ
TAF
KABQ 221750Z 2218/2318 22008KT P6SM SCT050 BKN200
     FM221930 18014G24KT P6SM SCT070 BKN200
     FM222200 19021G32KT P6SM SCT090
     FM230200 16010KT P6SM FEW100
     FM230700 VRB05KT P6SM SKC=



000
FTUS45 KABQ 221750
TAFFMN
TAF
KFMN 221750Z 2218/2318 08008KT P6SM FEW080 SCT200
     FM221930 15010KT P6SM SCT090 BKN200
     FM222100 18013G23KT P6SM VCSH BKN090
     FM230300 25008KT P6SM BKN120
     FM230600 VRB05KT P6SM SCT150=



000
FTUS45 KABQ 221750
TAFSAF
TAF
KSAF 221750Z 2218/2318 17010KT P6SM SCT035
      TEMPO 2218/2220 BKN025
     FM222100 19017G27KT P6SM SCT050
     FM230200 14011KT P6SM SCT120=



000
FTUS45 KABQ 221750
TAFGUP
TAF
KGUP 221750Z 2218/2318 15011KT P6SM FEW070 BKN200
     FM221900 21012G22KT P6SM SCT080 BKN200
     FM222100 22022G32KT P6SM SCT080
     FM230200 24013KT P6SM SCT150
     FM230400 VRB05KT P6SM SKC=



000
FTUS45 KABQ 221750
TAFTCC
TAF
KTCC 221750Z 2218/2318 19015KT P6SM FEW040
      TEMPO 2218/2219 BKN025
     FM222100 18015G25KT P6SM SCT050
     FM230200 16015KT P6SM VCSH SCT060 BKN120
      TEMPO 2305/2307 VRB20G30KT 2SM TSRA OVC020CB
     FM230700 19015KT P6SM VCTS SCT035CB BKN100
     FM230900 18012KT 5SM -RA BR BKN015
     FM231300 20015KT P6SM OVC025
     FM231700 23015G23KT P6SM SKC=



000
FTUS45 KABQ 221650 AAB
TAFSAF
TAF AMD
KSAF 221650Z 2217/2312 17007KT P6SM SCT030
      TEMPO 2217/2218 BKN025
     FM221900 18010KT P6SM SCT050
     FM222000 19017G27KT P6SM BKN100
     FM230300 15011KT P6SM BKN120
     FM230700 12007KT P6SM BKN120=



000
FTUS45 KABQ 221634 AAB
TAFLVS
TAF AMD
KLVS 221634Z 2217/2312 20015KT P6SM SCT015
     FM221930 20016G26KT P6SM BKN050
     FM222100 20025G35KT P6SM FEW070 SCT120
     FM230300 18015KT P6SM FEW120=



000
FTUS45 KABQ 221634 AAB
TAFLVS
TAF AMD
KLVS 221634Z 2217/2312 20015KT P6SM SCT015
     FM221930 20016G26KT P6SM BKN050
     FM222100 20025G35KT P6SM FEW070 SCT120
     FM230300 18015KT P6SM FEW120=



000
FTUS45 KABQ 221444 AAA
TAFLVS
TAF AMD
KLVS 221444Z 2215/2312 20015KT P6SM OVC004
     FM221700 20015KT P6SM BKN015
     FM221900 20016G26KT P6SM BKN050
     FM222000 20025G35KT P6SM SCT120
     FM230300 18015KT P6SM FEW120=



000
FTUS45 KABQ 221444 AAA
TAFSAF
TAF AMD
KSAF 221444Z 2215/2312 16005KT P6SM BKN035
      TEMPO 2215/2217 BKN015
     FM221700 18010KT P6SM SCT050
     FM222000 19017G27KT P6SM BKN100
     FM230300 15011KT P6SM BKN120
     FM230700 12007KT P6SM BKN120=



000
FTUS45 KABQ 221332 AAA
TAFROW
TAF AMD
KROW 221332Z 2214/2312 16004KT P6SM OVC005
     FM221500 16010KT P6SM BKN015
     FM221900 17014G22KT P6SM BKN050
     FM230300 15014KT P6SM BKN025
      TEMPO 2303/2307 2SM TSRA OVC020CB=



000
FTUS45 KABQ 221258 AAA
TAFTCC
TAF AMD
KTCC 221258Z 2213/2312 19006KT 4SM BR OVC004
     FM221500 21008KT P6SM BKN015
     FM221800 20012KT P6SM BKN035
     FM222000 18016G24KT P6SM BKN050
      TEMPO 2304/2308 2SM TSRA OVC020CB
     FM230800 18012KT P6SM BKN025
      AMD NOT SKED=



000
FTUS45 KABQ 221138
TAFABQ
TAF
KABQ 221138Z 2212/2312 33005KT P6SM BKN040
     FM221600 21006KT P6SM SCT050
     FM221900 18014G24KT P6SM SCT100
     FM222200 19022G32KT P6SM SCT120
     FM230300 17010KT P6SM FEW120
     FM230700 14005KT P6SM SCT120=



000
FTUS45 KABQ 221138
TAFLVS
TAF
KLVS 221138Z 2212/2312 20012KT 1/2SM FG VV001
      TEMPO 2212/2215 2SM BR OVC004
     FM221500 20013KT P6SM BKN015
     FM221700 20016G26KT P6SM BKN050
     FM222000 20025G35KT P6SM SCT120
     FM230300 18015KT P6SM FEW120=



000
FTUS45 KABQ 221138
TAFTCC
TAF
KTCC 221138Z 2212/2312 19006KT 4SM BR OVC004
     FM221500 21008KT P6SM BKN015
     FM221800 20012KT P6SM BKN035
     FM222000 18016G24KT P6SM BKN050
      TEMPO 2304/2308 2SM TSRA OVC020CB
     FM230800 18012KT P6SM BKN025=



000
FTUS45 KABQ 221138
TAFFMN
TAF
KFMN 221138Z 2212/2312 09008KT P6SM BKN110
     FM221800 15010KT P6SM BKN120
     FM222300 18013G23KT P6SM VCSH BKN100
     FM230200 25008KT P6SM BKN120=



000
FTUS45 KABQ 221138
TAFTCC
TAF
KTCC 221138Z 2212/2312 19006KT 4SM BR OVC004
     FM221500 21008KT P6SM BKN015
     FM221800 20012KT P6SM BKN035
     FM222000 18016G24KT P6SM BKN050
      TEMPO 2304/2308 2SM TSRA OVC020CB
     FM230800 18012KT P6SM BKN025=



000
FTUS45 KABQ 221138
TAFLVS
TAF
KLVS 221138Z 2212/2312 20012KT 1/2SM FG VV001
      TEMPO 2212/2215 2SM BR OVC004
     FM221500 20013KT P6SM BKN015
     FM221700 20016G26KT P6SM BKN050
     FM222000 20025G35KT P6SM SCT120
     FM230300 18015KT P6SM FEW120=



000
FTUS45 KABQ 221138
TAFGUP
TAF
KGUP 221138Z 2212/2312 07005KT P6SM BKN100
     FM221700 21012G22KT P6SM BKN120
     FM222100 22022G32KT P6SM SCT120
     FM230200 24013KT P6SM SCT200=



000
FTUS45 KABQ 221138
TAFABQ
TAF
KABQ 221138Z 2212/2312 33005KT P6SM BKN040
     FM221600 21006KT P6SM SCT050
     FM221900 18014G24KT P6SM SCT100
     FM222200 19022G32KT P6SM SCT120
     FM230300 17010KT P6SM FEW120
     FM230700 14005KT P6SM SCT120=



000
FTUS45 KABQ 221138
TAFGUP
TAF
KGUP 221138Z 2212/2312 07005KT P6SM BKN100
     FM221700 21012G22KT P6SM BKN120
     FM222100 22022G32KT P6SM SCT120
     FM230200 24013KT P6SM SCT200=



000
FTUS45 KABQ 221138
TAFROW
TAF
KROW 221138Z 2212/2312 16003KT 5SM BR OVC009
     FM221600 16010KT P6SM BKN025
     FM221900 17014G22KT P6SM BKN050
     FM230300 15014KT P6SM BKN025
      TEMPO 2303/2307 2SM TSRA OVC020CB=



000
FTUS45 KABQ 221138
TAFSAF
TAF
KSAF 221138Z 2212/2312 16005KT P6SM BKN035
     FM221700 18010KT P6SM SCT050
     FM222000 19017G27KT P6SM BKN100
     FM230300 15011KT P6SM BKN120
     FM230700 12007KT P6SM BKN120=



000
FTUS45 KABQ 221138
TAFFMN
TAF
KFMN 221138Z 2212/2312 09008KT P6SM BKN110
     FM221800 15010KT P6SM BKN120
     FM222300 18013G23KT P6SM VCSH BKN100
     FM230200 25008KT P6SM BKN120=



000
FTUS45 KABQ 221138
TAFSAF
TAF
KSAF 221138Z 2212/2312 16005KT P6SM BKN035
     FM221700 18010KT P6SM SCT050
     FM222000 19017G27KT P6SM BKN100
     FM230300 15011KT P6SM BKN120
     FM230700 12007KT P6SM BKN120=



000
FTUS45 KABQ 221138
TAFROW
TAF
KROW 221138Z 2212/2312 16003KT 5SM BR OVC009
     FM221600 16010KT P6SM BKN025
     FM221900 17014G22KT P6SM BKN050
     FM230300 15014KT P6SM BKN025
      TEMPO 2303/2307 2SM TSRA OVC020CB=



000
FTUS45 KABQ 221009 AAC
TAFLVS
TAF AMD
KLVS 221009Z 2210/2306 18012KT P6SM BKN025
      TEMPO 2210/2214 1/2SM FG BKN002
     FM221600 19015G25KT P6SM FEW200
     FM222000 20025G34KT P6SM FEW200
     FM230300 18015KT P6SM FEW100=



000
FTUS45 KABQ 221009 AAC
TAFLVS
TAF AMD
KLVS 221009Z 2210/2306 18012KT P6SM BKN025
      TEMPO 2210/2214 1/2SM FG BKN002
     FM221600 19015G25KT P6SM FEW200
     FM222000 20025G34KT P6SM FEW200
     FM230300 18015KT P6SM FEW100=



000
FTUS45 KABQ 220950 AAB
TAFLVS
TAF AMD
KLVS 220950Z 2210/2306 18012KT P6SM BKN025
      TEMPO 2210/2214 2SM BR BKN002
     FM221600 19015G25KT P6SM FEW200
     FM222000 20025G34KT P6SM FEW200
     FM230300 18015KT P6SM FEW100=



000
FTUS45 KABQ 220939 AAA
TAFLVS
TAF AMD
KLVS 220939Z 2210/2306 18012KT P6SM BKN025
      TEMPO 2210/2214 4SM BR BKN007
     FM221600 19015G25KT P6SM FEW200
     FM222000 20025G34KT P6SM FEW200
     FM230300 18015KT P6SM FEW100=



000
FTUS45 KABQ 220939 AAA
TAFLVS
TAF AMD
KLVS 220939Z 2210/2306 18012KT P6SM BKN025
      TEMPO 2210/2214 4SM BR BKN007
     FM221600 19015G25KT P6SM FEW200
     FM222000 20025G34KT P6SM FEW200
     FM230300 18015KT P6SM FEW100=



000
FTUS45 KABQ 220852 AAB
TAFABQ
TAF AMD
KABQ 220852Z 2209/2306 08012KT P6SM OVC035
     FM221500 11010KT P6SM SCT030 SCT100
     FM221800 18015G24KT P6SM SCT200
     FM230200 17010KT P6SM SKC=



000
FTUS45 KABQ 220819 AAA
TAFTCC
TAF AMD
KTCC 220819Z 2208/2306 16007KT 2SM BR OVC004
     FM221500 19010KT 4SM BR OVC008
     FM222000 19014G22KT P6SM SCT050
     FM230300 15016KT P6SM SCT015 BKN050=



000
FTUS45 KABQ 220819 AAA
TAFTCC
TAF AMD
KTCC 220819Z 2208/2306 16007KT 2SM BR OVC004
     FM221500 19010KT 4SM BR OVC008
     FM222000 19014G22KT P6SM SCT050
     FM230300 15016KT P6SM SCT015 BKN050=



    US Dept of Commerce
    National Oceanic and Atmospheric Administration
    National Weather Service
    1325 East West Highway
    Silver Spring, MD 20910
    Page Author: NWS Internet Services Team
Disclaimer
Information Quality
Credits
Glossary
Privacy Policy
Freedom of Information Act (FOIA)
About Us
Career Opportunities